Hlavní strana
METAR-TAF:

METAR-TAF

Letiště :

Tunis, Tunisko

zeměpisná šířka: 36-50N, zeměpisná délka: 010-14E, výška: 3 m

Aktuální stav počasí

Zpráva byla vytvořena před 37 minutami, v 03:00 UTC
Jihozápadní vítr 10 kt
Teplota 15°C
Vlhkost vzduchu 72%
Tlak 1020 hPa
Viditelnost 10 km a více
Skoro jasno ve výšce 2600 ft

METAR: DTTA 230300Z 23010KT 9999 FEW026 15/10 Q1020 NOSIG

Čas: 04:37 (03:37 UTC)

Předpověď počasí

Zpráva byla vytvořena před 4 hodinami a 37 minutami, v 23:00 UTC
Předpověď platná od 23 v 00 UTC do 23 v 24 UTC
Západoseverozápadní vítr 20 kt s nárazy do 37 kt
Viditelnost 10 km a více
Skoro jasno ve výšce 2600 ft
Změna
od 23 v 17 UTC do 23 v 19 UTC
Západoseverozápadní vítr 15 kt

TAF: DTTA 222300Z 2300/2324 30020G37KT 9999 FEW026 BECMG 2317/2319 30015KT

Stav a předpovědi počasí z více než 4 000 letišť (zprávy METAR a TAF).

Červené a žluté tečky na mapě představují dostupné meteorologické stanice.

Když kurzor umístíte na tečku, zobrazí se název stanice.

Pak kliknutím zobrazíte stav a předpověď počasí.

Chcete-li změnit mapu, kliknutím na zelené tlačítko se znaménkem +mapu přiblížíte, kliknutím na zelené tlačítko se znaménkem – mapu oddálíte a kliknutím na zelené šipky přejdete na sousední mapy.


METAR-TAF: